createdAt,value
2018-05-23T00:02:06.739Z,57.44
2018-05-23T00:04:32.678Z,57.77
2018-05-23T00:06:58.613Z,57.69
2018-05-23T00:09:24.545Z,58.18
2018-05-23T00:11:50.517Z,58.70
2018-05-23T00:14:16.464Z,58.79
2018-05-23T00:16:42.413Z,58.29
2018-05-23T00:19:08.378Z,58.80
2018-05-23T00:24:06.734Z,58.25
2018-05-23T00:26:32.686Z,58.70
2018-05-23T00:28:58.648Z,58.88
2018-05-23T00:31:24.607Z,58.83
2018-05-23T00:33:50.568Z,59.16
2018-05-23T00:36:16.548Z,58.06
2018-05-23T00:38:42.516Z,59.24
2018-05-23T00:41:08.450Z,59.34
2018-05-23T00:43:34.416Z,59.95
2018-05-23T00:46:00.360Z,60.39
2018-05-23T00:48:26.299Z,59.87
2018-05-23T00:50:52.238Z,60.30
2018-05-23T00:53:18.179Z,60.30
2018-05-23T00:55:44.108Z,59.74
2018-05-23T00:58:10.069Z,59.67
2018-05-23T01:00:36.113Z,59.22
2018-05-23T01:03:02.087Z,60.64
2018-05-23T01:05:28.036Z,59.61
2018-05-23T01:07:53.971Z,59.27
2018-05-23T01:10:19.944Z,58.44
2018-05-23T01:12:45.901Z,58.80
2018-05-23T01:15:11.867Z,59.27
2018-05-23T01:17:37.898Z,59.53
2018-05-23T01:20:03.845Z,59.71
2018-05-23T01:22:29.809Z,59.24
2018-05-23T01:24:55.786Z,59.91
2018-05-23T01:27:21.711Z,60.08
2018-05-23T01:29:47.675Z,59.80
2018-05-23T01:32:13.639Z,60.38
2018-05-23T01:34:39.574Z,60.86
2018-05-23T01:37:05.534Z,59.77
2018-05-23T01:39:31.480Z,60.07
2018-05-23T01:41:57.439Z,59.85
2018-05-23T01:44:23.394Z,59.74
2018-05-23T01:46:49.331Z,61.11
2018-05-23T01:49:15.298Z,60.89
2018-05-23T01:51:41.253Z,60.49
2018-05-23T01:54:07.200Z,60.38
2018-05-23T01:56:33.162Z,60.04
2018-05-23T01:58:59.127Z,59.98
2018-05-23T02:01:25.173Z,59.55
2018-05-23T02:03:51.155Z,60.38
2018-05-23T02:06:17.108Z,61.41
2018-05-23T02:08:43.088Z,61.17
2018-05-23T02:11:09.024Z,60.96
2018-05-23T02:13:34.965Z,61.86
2018-05-23T02:16:00.899Z,62.46
2018-05-23T02:18:26.866Z,62.65
2018-05-23T02:20:52.824Z,62.65
2018-05-23T02:23:18.792Z,61.46
2018-05-23T02:25:44.731Z,61.37
2018-05-23T02:28:10.658Z,60.77
2018-05-23T02:30:36.596Z,61.29
2018-05-23T02:33:02.563Z,60.68
2018-05-23T02:35:28.524Z,62.51
2018-05-23T02:37:54.473Z,62.23
2018-05-23T02:40:20.450Z,62.60
2018-05-23T02:42:46.379Z,62.07
2018-05-23T02:45:12.333Z,62.07
2018-05-23T02:47:38.302Z,61.99
2018-05-23T02:50:04.266Z,62.17
2018-05-23T02:52:30.255Z,62.98
2018-05-23T02:54:56.243Z,63.48
2018-05-23T02:57:22.190Z,63.12
2018-05-23T02:59:48.163Z,63.01
2018-05-23T03:02:14.107Z,62.35
2018-05-23T03:04:40.066Z,61.70
2018-05-23T03:07:06.034Z,61.39
2018-05-23T03:09:31.997Z,61.29
2018-05-23T03:11:57.930Z,62.59
2018-05-23T03:14:23.880Z,62.89
2018-05-23T03:16:49.839Z,63.67
2018-05-23T03:19:15.778Z,62.88
2018-05-23T03:21:41.732Z,62.10
2018-05-23T03:24:07.719Z,62.60
2018-05-23T03:26:33.681Z,64.11
2018-05-23T03:28:59.669Z,63.24
2018-05-23T03:31:25.613Z,64.31
2018-05-23T03:33:54.913Z,66.19
2018-05-23T03:36:20.846Z,64.36
2018-05-23T03:38:46.813Z,65.29
2018-05-23T03:41:12.763Z,64.39
2018-05-23T03:43:38.771Z,65.01
2018-05-23T03:46:04.721Z,66.81
2018-05-23T03:48:30.983Z,69.42
2018-05-23T03:50:56.963Z,66.47
2018-05-23T03:53:22.934Z,69.58
2018-05-23T03:55:48.917Z,68.31
2018-05-23T03:58:14.883Z,66.47
2018-05-23T04:00:40.917Z,66.52
2018-05-23T04:03:06.885Z,64.29
2018-05-23T04:05:32.827Z,68.04
2018-05-23T04:07:58.834Z,71.81
2018-05-23T04:10:24.803Z,72.12
2018-05-23T04:12:50.821Z,69.48
2018-05-23T04:15:16.776Z,68.32
2018-05-23T04:17:42.718Z,69.72
2018-05-23T04:20:08.686Z,68.34
2018-05-23T04:22:34.640Z,69.20
2018-05-23T04:25:00.688Z,68.41
2018-05-23T04:27:26.575Z,71.49
2018-05-23T04:29:52.548Z,69.47
2018-05-23T04:32:18.515Z,71.12
2018-05-23T04:34:44.480Z,71.35
2018-05-23T04:37:10.439Z,69.68
2018-05-23T04:39:36.418Z,68.78
2018-05-23T04:42:02.396Z,67.17
2018-05-23T04:44:28.326Z,66.07
2018-05-23T04:46:54.284Z,68.12
2018-05-23T04:49:20.267Z,70.64
2018-05-23T04:51:46.199Z,69.11
2018-05-23T04:54:12.174Z,67.07
2018-05-23T04:56:38.109Z,67.13
2018-05-23T04:59:04.068Z,67.54
2018-05-23T05:01:30.033Z,67.12
2018-05-23T05:03:55.982Z,65.55
2018-05-23T05:06:21.916Z,64.46
2018-05-23T05:08:47.862Z,66.26
2018-05-23T05:11:14.005Z,65.81
2018-05-23T05:13:39.964Z,65.22
2018-05-23T05:16:06.015Z,64.41
2018-05-23T05:18:31.981Z,66.15
2018-05-23T05:20:57.918Z,64.67
2018-05-23T05:23:23.866Z,65.36
2018-05-23T05:25:49.918Z,63.96
2018-05-23T05:28:15.877Z,62.98
2018-05-23T05:30:41.890Z,61.06
2018-05-23T05:33:07.853Z,61.22
2018-05-23T05:35:33.846Z,61.38
2018-05-23T05:37:59.790Z,59.81
2018-05-23T05:40:25.784Z,59.22
2018-05-23T05:42:51.733Z,57.20
2018-05-23T05:45:17.721Z,56.56
2018-05-23T05:47:43.709Z,55.81
2018-05-23T05:50:09.684Z,55.02
2018-05-23T05:52:35.666Z,54.97
2018-05-23T05:55:01.666Z,53.62
2018-05-23T05:57:27.654Z,54.28
2018-05-23T05:59:53.639Z,52.67
2018-05-23T06:02:19.600Z,52.81
2018-05-23T06:04:45.561Z,52.04
2018-05-23T06:07:11.507Z,50.97
2018-05-23T06:09:37.497Z,50.53
2018-05-23T06:12:03.453Z,50.38
2018-05-23T06:14:29.441Z,51.86
2018-05-23T06:16:55.393Z,50.93
2018-05-23T06:19:21.429Z,49.99
2018-05-23T06:21:47.413Z,50.02
2018-05-23T06:24:13.386Z,50.15
2018-05-23T06:26:39.365Z,49.44
2018-05-23T06:29:05.319Z,48.90
2018-05-23T06:31:31.277Z,48.73
2018-05-23T06:33:57.256Z,48.14
2018-05-23T06:36:23.226Z,47.81
2018-05-23T06:38:49.199Z,47.91
2018-05-23T06:41:15.217Z,47.70
2018-05-23T06:43:41.286Z,47.58
2018-05-23T06:46:07.261Z,47.30
2018-05-23T06:48:33.222Z,46.93
2018-05-23T06:50:59.154Z,46.78
2018-05-23T06:53:25.202Z,46.48
2018-05-23T06:55:51.188Z,45.33
2018-05-23T06:58:17.145Z,43.99
2018-05-23T07:00:43.120Z,44.89
2018-05-23T07:03:09.106Z,43.78
2018-05-23T07:05:35.068Z,43.40
2018-05-23T07:08:01.017Z,41.62
2018-05-23T07:10:26.953Z,41.73
2018-05-23T07:12:52.906Z,42.60
2018-05-23T07:15:18.855Z,41.48
2018-05-23T07:17:44.830Z,40.29
2018-05-23T07:20:10.863Z,40.14
2018-05-23T07:22:37.793Z,39.69
2018-05-23T07:25:03.758Z,40.73
2018-05-23T07:27:29.701Z,39.73
2018-05-23T07:29:55.667Z,40.02
2018-05-23T07:32:21.652Z,40.39
2018-05-23T07:34:47.620Z,39.78
2018-05-23T07:37:13.562Z,39.96
2018-05-23T07:39:39.523Z,38.89
2018-05-23T07:42:05.484Z,38.38
2018-05-23T07:44:31.479Z,39.69
2018-05-23T07:46:57.453Z,40.00
2018-05-23T07:49:23.426Z,39.23
2018-05-23T07:51:49.430Z,39.87
2018-05-23T07:54:15.404Z,40.46
2018-05-23T07:56:41.395Z,39.48
2018-05-23T07:59:07.329Z,39.50
2018-05-23T08:01:33.287Z,39.91
2018-05-23T08:03:59.232Z,38.38
2018-05-23T08:06:25.173Z,38.72
2018-05-23T08:08:51.205Z,39.42
2018-05-23T08:11:17.207Z,39.51
2018-05-23T08:13:43.262Z,39.93
2018-05-23T08:16:09.264Z,40.22
2018-05-23T08:18:35.257Z,41.15
2018-05-23T08:21:01.330Z,41.53
2018-05-23T08:23:27.343Z,41.68
2018-05-23T08:25:53.342Z,40.71
2018-05-23T08:28:20.049Z,42.86
2018-05-23T08:30:46.054Z,43.60
2018-05-23T08:33:12.076Z,43.19
2018-05-23T08:35:38.078Z,43.26
2018-05-23T08:38:04.027Z,45.30
2018-05-23T08:40:29.981Z,45.26
2018-05-23T08:42:55.922Z,44.19
2018-05-23T08:45:21.901Z,44.28
2018-05-23T08:47:47.886Z,45.03
2018-05-23T08:50:13.865Z,44.97
2018-05-23T08:52:39.935Z,45.26
2018-05-23T08:55:05.887Z,46.65
2018-05-23T08:57:31.850Z,45.15
2018-05-23T08:59:57.857Z,45.93
2018-05-23T09:02:23.794Z,45.33
2018-05-23T09:04:49.772Z,45.39
2018-05-23T09:07:15.702Z,45.24
2018-05-23T09:09:41.704Z,45.60
2018-05-23T09:12:07.710Z,46.46
2018-05-23T09:14:33.695Z,45.53
2018-05-23T09:16:59.683Z,46.35
2018-05-23T09:19:25.645Z,46.30
2018-05-23T09:21:51.604Z,46.58
2018-05-23T09:24:17.562Z,46.00
2018-05-23T09:26:43.498Z,46.13
2018-05-23T09:29:09.479Z,46.44
2018-05-23T09:31:35.443Z,45.95
2018-05-23T09:34:01.481Z,45.38
2018-05-23T09:36:27.490Z,45.89
2018-05-23T09:38:53.464Z,45.94
2018-05-23T09:41:19.402Z,45.62
2018-05-23T09:43:45.395Z,45.15
2018-05-23T09:46:11.342Z,44.96
2018-05-23T09:48:37.293Z,44.97
2018-05-23T09:51:03.247Z,45.37
2018-05-23T09:53:29.252Z,44.37
2018-05-23T09:55:55.212Z,45.03
2018-05-23T09:58:21.221Z,45.23
2018-05-23T10:00:47.235Z,45.31
2018-05-23T10:03:13.238Z,44.92
2018-05-23T10:05:39.198Z,45.18
2018-05-23T10:08:05.146Z,45.11
2018-05-23T10:10:31.123Z,44.97
2018-05-23T10:12:57.106Z,45.38
2018-05-23T10:15:23.075Z,45.95
2018-05-23T10:17:49.077Z,46.19
2018-05-23T10:20:15.049Z,45.87
2018-05-23T10:22:41.067Z,45.92
2018-05-23T10:25:07.064Z,45.62
2018-05-23T10:27:33.022Z,45.86
2018-05-23T10:29:59.094Z,46.07
2018-05-23T10:32:25.109Z,46.20
2018-05-23T10:34:51.090Z,46.35
2018-05-23T10:37:17.098Z,46.44
2018-05-23T10:39:43.099Z,46.72
2018-05-23T10:42:09.076Z,46.90
2018-05-23T10:44:35.102Z,46.91
2018-05-23T10:47:01.107Z,47.05
2018-05-23T10:49:27.116Z,46.99
2018-05-23T10:51:53.075Z,47.35
2018-05-23T10:54:19.089Z,47.28
2018-05-23T10:56:45.026Z,47.15
2018-05-23T10:59:11.073Z,47.48
2018-05-23T11:01:37.064Z,47.43
2018-05-23T11:04:03.089Z,47.71
2018-05-23T11:06:29.049Z,47.74
2018-05-23T11:08:55.049Z,47.94
2018-05-23T11:11:20.986Z,47.61
2018-05-23T11:13:47.096Z,47.87
2018-05-23T11:16:13.065Z,48.11
2018-05-23T11:18:39.031Z,48.26
2018-05-23T11:21:04.993Z,48.20
2018-05-23T11:23:30.977Z,48.58
2018-05-23T11:25:56.961Z,48.49
2018-05-23T11:28:22.916Z,48.86
2018-05-23T11:30:48.871Z,49.02
2018-05-23T11:33:14.807Z,49.13
2018-05-23T11:35:40.782Z,49.51
2018-05-23T11:38:06.731Z,49.85
2018-05-23T11:40:32.696Z,51.77
2018-05-23T11:42:58.650Z,52.41
2018-05-23T11:45:24.681Z,52.84
2018-05-23T11:47:50.661Z,53.96
2018-05-23T11:50:16.650Z,54.14
2018-05-23T11:52:42.614Z,53.83
2018-05-23T11:55:08.640Z,55.07
2018-05-23T11:57:34.591Z,55.37
2018-05-23T12:00:00.604Z,54.85
2018-05-23T12:02:26.561Z,54.76
2018-05-23T12:04:52.575Z,54.97
2018-05-23T12:07:18.560Z,55.04
2018-05-23T12:09:44.538Z,55.88
2018-05-23T12:12:10.473Z,56.23
2018-05-23T12:14:36.432Z,55.72
2018-05-23T12:17:02.366Z,55.73
2018-05-23T12:19:28.362Z,55.29
2018-05-23T12:21:54.306Z,55.72
2018-05-23T12:24:20.300Z,55.85
2018-05-23T12:26:46.318Z,55.07
2018-05-23T12:29:12.284Z,55.63
2018-05-23T12:31:38.229Z,55.19
2018-05-23T12:34:04.233Z,55.13
2018-05-23T12:36:30.236Z,55.03
2018-05-23T12:38:56.212Z,55.16
2018-05-23T12:41:22.235Z,55.19
2018-05-23T12:43:48.181Z,55.56
2018-05-23T12:46:14.147Z,55.85
2018-05-23T12:48:40.160Z,55.16
2018-05-23T12:51:06.202Z,55.43
2018-05-23T12:53:32.193Z,55.70
2018-05-23T12:55:58.198Z,55.57
2018-05-23T12:58:24.210Z,54.85
2018-05-23T13:00:50.173Z,55.40
2018-05-23T13:03:16.146Z,55.34
2018-05-23T13:05:42.154Z,55.17
2018-05-23T13:08:08.138Z,54.71
2018-05-23T13:10:34.151Z,54.70
2018-05-23T13:13:00.133Z,54.76
2018-05-23T13:15:26.205Z,55.17
2018-05-23T13:17:52.243Z,55.43
2018-05-23T13:20:18.253Z,55.47
2018-05-23T13:22:44.214Z,55.75
2018-05-23T13:25:10.207Z,55.26
2018-05-23T13:27:36.201Z,55.04
2018-05-23T13:30:02.184Z,54.86
2018-05-23T13:32:28.199Z,54.66
2018-05-23T13:34:54.176Z,54.20
2018-05-23T13:37:20.138Z,54.12
2018-05-23T13:39:46.164Z,54.00
2018-05-23T13:42:12.127Z,54.11
2018-05-23T13:44:38.153Z,54.06
2018-05-23T13:47:04.144Z,53.93
2018-05-23T13:49:30.113Z,53.82
2018-05-23T13:51:57.397Z,53.82
2018-05-23T13:54:23.375Z,54.32
2018-05-23T13:56:49.335Z,54.63
2018-05-23T13:59:15.295Z,53.64
2018-05-23T14:01:41.335Z,53.70
2018-05-23T14:04:07.295Z,53.45
2018-05-23T14:06:33.235Z,53.10
2018-05-23T14:08:59.217Z,52.42
2018-05-23T14:11:25.237Z,52.21
2018-05-23T14:13:51.177Z,52.16
2018-05-23T14:16:17.142Z,52.37
2018-05-23T14:18:43.121Z,52.11
2018-05-23T14:21:09.172Z,52.15
2018-05-23T14:23:35.129Z,51.73
2018-05-23T14:26:01.122Z,52.00
2018-05-23T14:28:27.130Z,51.86
2018-05-23T14:30:53.092Z,51.96
2018-05-23T14:33:19.047Z,52.00
2018-05-23T14:35:45.062Z,52.43
2018-05-23T14:38:10.950Z,51.65
2018-05-23T14:40:36.961Z,51.25
2018-05-23T14:43:02.937Z,51.06
2018-05-23T14:45:28.940Z,51.45
2018-05-23T14:47:54.976Z,51.24
2018-05-23T14:50:20.984Z,51.38
2018-05-23T14:52:46.958Z,51.29
2018-05-23T14:55:12.899Z,50.61
2018-05-23T14:57:38.957Z,50.75
2018-05-23T15:00:04.905Z,50.74
2018-05-23T15:02:30.953Z,50.67
2018-05-23T15:04:56.864Z,49.63
2018-05-23T15:07:22.844Z,49.56
2018-05-23T15:09:48.829Z,49.81
2018-05-23T15:12:14.777Z,49.42
2018-05-23T15:14:40.757Z,48.33
2018-05-23T15:17:06.717Z,48.06
2018-05-23T15:19:32.679Z,47.79
2018-05-23T15:21:58.704Z,47.17
2018-05-23T15:24:24.687Z,46.98
2018-05-23T15:26:50.711Z,47.06
2018-05-23T15:29:16.685Z,46.37
2018-05-23T15:31:42.655Z,45.56
2018-05-23T15:34:08.685Z,45.18
2018-05-23T15:36:34.633Z,44.93
2018-05-23T15:39:00.648Z,44.41
2018-05-23T15:41:26.636Z,44.69
2018-05-23T15:43:52.640Z,44.63
2018-05-23T15:46:18.634Z,44.67
2018-05-23T15:48:44.585Z,44.33
2018-05-23T15:51:10.643Z,44.18
2018-05-23T15:53:36.559Z,44.25
2018-05-23T15:56:02.503Z,44.60
2018-05-23T15:58:28.473Z,43.53
2018-05-23T16:00:54.442Z,43.32
2018-05-23T16:03:20.394Z,43.32
2018-05-23T16:05:46.344Z,43.50
2018-05-23T16:08:12.314Z,43.82
2018-05-23T16:10:38.258Z,43.12
2018-05-23T16:13:04.229Z,44.09
2018-05-23T16:15:30.208Z,44.05
2018-05-23T16:17:56.162Z,42.69
2018-05-23T16:20:23.204Z,43.89
2018-05-23T16:22:49.137Z,43.55
2018-05-23T16:25:15.161Z,42.57
2018-05-23T16:27:41.143Z,43.18
2018-05-23T16:30:07.100Z,44.15
2018-05-23T16:32:33.086Z,42.49
2018-05-23T16:34:59.054Z,43.41
2018-05-23T16:37:25.025Z,44.20
2018-05-23T16:39:50.980Z,44.02
2018-05-23T16:42:16.968Z,45.47
2018-05-23T16:44:43.063Z,44.97
2018-05-23T16:47:09.062Z,45.20
2018-05-23T16:49:35.127Z,45.91
2018-05-23T16:52:01.203Z,44.89
2018-05-23T16:54:27.163Z,44.88
2018-05-23T16:56:53.130Z,44.96
2018-05-23T16:59:19.091Z,45.80
2018-05-23T17:01:45.138Z,45.91
2018-05-23T17:04:11.147Z,45.93
2018-05-23T17:06:37.095Z,45.96
2018-05-23T17:09:03.080Z,46.29
2018-05-23T17:11:29.983Z,47.20
2018-05-23T17:13:56.173Z,47.57
2018-05-23T17:16:22.196Z,47.59
2018-05-23T17:18:48.298Z,47.41
2018-05-23T17:21:14.631Z,47.78
2018-05-23T17:23:40.592Z,47.65
2018-05-23T17:26:06.548Z,47.31
2018-05-23T17:28:32.558Z,47.46
2018-05-23T17:30:58.542Z,47.57
2018-05-23T17:33:24.593Z,47.92
2018-05-23T17:35:50.549Z,48.16
2018-05-23T17:38:16.575Z,48.31
2018-05-23T17:40:42.543Z,48.41
2018-05-23T17:43:08.541Z,48.94
2018-05-23T17:45:34.606Z,48.96
2018-05-23T17:48:00.592Z,48.93
2018-05-23T17:50:26.622Z,49.33
2018-05-23T17:52:52.609Z,49.36
2018-05-23T17:55:18.581Z,49.35
2018-05-23T17:57:44.589Z,49.72
2018-05-23T18:00:10.678Z,49.60
2018-05-23T18:02:36.692Z,50.09
2018-05-23T18:05:02.672Z,50.24
2018-05-23T18:07:28.681Z,50.90
2018-05-23T18:09:54.661Z,50.73
2018-05-23T18:12:20.595Z,50.81
2018-05-23T18:14:46.569Z,51.14
2018-05-23T18:17:12.524Z,51.21
2018-05-23T18:19:38.561Z,51.56
2018-05-23T18:22:04.519Z,51.89
2018-05-23T18:24:30.454Z,52.15
2018-05-23T18:26:56.436Z,52.23
2018-05-23T18:29:22.812Z,52.86
2018-05-23T18:31:48.810Z,52.37
2018-05-23T18:34:14.745Z,52.85
2018-05-23T18:36:40.687Z,52.85
2018-05-23T18:39:06.666Z,53.24
2018-05-23T18:41:32.636Z,52.68
2018-05-23T18:43:58.629Z,53.10
2018-05-23T18:46:25.658Z,52.93
2018-05-23T18:48:51.601Z,53.48
2018-05-23T18:51:17.613Z,53.10
2018-05-23T18:53:43.575Z,53.31
2018-05-23T18:56:09.557Z,53.15
2018-05-23T18:58:35.563Z,53.15
2018-05-23T19:01:01.510Z,53.54
2018-05-23T19:03:27.491Z,53.49
2018-05-23T19:05:53.456Z,53.62
2018-05-23T19:08:19.445Z,53.71
2018-05-23T19:10:45.425Z,53.52
2018-05-23T19:13:11.402Z,53.75
2018-05-23T19:15:37.345Z,53.88
2018-05-23T19:18:03.387Z,53.98
2018-05-23T19:20:29.665Z,53.87
2018-05-23T19:22:55.617Z,53.77
2018-05-23T19:25:21.550Z,53.90
2018-05-23T19:27:47.515Z,54.08
2018-05-23T19:30:13.502Z,53.77
2018-05-23T19:32:39.465Z,53.90
2018-05-23T19:35:05.434Z,54.28
2018-05-23T19:37:31.383Z,54.43
2018-05-23T19:39:57.359Z,54.18
2018-05-23T19:42:23.354Z,53.95
2018-05-23T19:44:49.321Z,54.24
2018-05-23T19:47:15.292Z,54.38
2018-05-23T19:49:41.259Z,54.29
2018-05-23T19:52:07.255Z,54.50
2018-05-23T19:54:33.200Z,54.22
2018-05-23T19:56:59.241Z,54.64
2018-05-23T19:59:25.250Z,54.40
2018-05-23T20:01:51.236Z,54.54
2018-05-23T20:04:17.233Z,54.34
2018-05-23T20:06:43.211Z,54.69
2018-05-23T20:09:09.172Z,54.52
2018-05-23T20:11:35.149Z,54.62
2018-05-23T20:14:01.218Z,54.87
2018-05-23T20:16:27.176Z,54.30
2018-05-23T20:18:53.150Z,54.37
2018-05-23T20:21:19.111Z,54.25
2018-05-23T20:23:45.137Z,53.97
2018-05-23T20:26:11.114Z,53.89
2018-05-23T20:28:37.067Z,54.62
2018-05-23T20:31:03.067Z,53.77
2018-05-23T20:33:29.071Z,53.95
2018-05-23T20:35:55.041Z,53.85
2018-05-23T20:38:20.982Z,54.22
2018-05-23T20:40:47.061Z,53.98
2018-05-23T20:43:13.008Z,54.41
2018-05-23T20:45:38.999Z,54.63
2018-05-23T20:48:05.029Z,53.37
2018-05-23T20:50:30.989Z,52.78
2018-05-23T20:52:56.977Z,51.46
2018-05-23T20:55:22.989Z,51.89
2018-05-23T20:57:48.946Z,51.48
2018-05-23T21:00:14.937Z,50.53
2018-05-23T21:02:40.888Z,50.66
2018-05-23T21:05:06.874Z,49.91
2018-05-23T21:07:32.827Z,49.62
2018-05-23T21:09:58.828Z,49.23
2018-05-23T21:12:24.774Z,49.36
2018-05-23T21:14:50.737Z,49.39
2018-05-23T21:17:16.673Z,49.82
2018-05-23T21:19:42.646Z,48.98
2018-05-23T21:22:08.605Z,49.24
2018-05-23T21:24:34.601Z,47.68
2018-05-23T21:27:00.611Z,47.41
2018-05-23T21:29:26.652Z,48.35
2018-05-23T21:31:52.613Z,48.20
2018-05-23T21:34:18.617Z,48.33
2018-05-23T21:36:44.671Z,47.97
2018-05-23T21:39:10.644Z,47.94
2018-05-23T21:41:36.638Z,48.46
2018-05-23T21:44:02.577Z,47.99
2018-05-23T21:46:28.545Z,48.14
2018-05-23T21:48:54.501Z,47.97
2018-05-23T21:51:20.461Z,47.82
2018-05-23T21:53:46.430Z,47.84
2018-05-23T21:56:12.470Z,47.95
2018-05-23T21:58:38.366Z,47.67
2018-05-23T22:01:04.323Z,47.95
2018-05-23T22:03:30.273Z,48.03
2018-05-23T22:05:56.250Z,48.10
2018-05-23T22:08:22.218Z,48.00
2018-05-23T22:10:48.208Z,48.20
2018-05-23T22:13:14.165Z,47.99
2018-05-23T22:15:40.126Z,47.87
2018-05-23T22:18:06.084Z,47.93
2018-05-23T22:20:32.059Z,48.47
2018-05-23T22:22:58.010Z,48.34
2018-05-23T22:25:23.996Z,48.50
2018-05-23T22:27:49.955Z,48.21
2018-05-23T22:30:15.945Z,48.73
2018-05-23T22:32:41.914Z,48.65
2018-05-23T22:35:07.885Z,48.53
2018-05-23T22:37:33.851Z,49.04
2018-05-23T22:39:59.805Z,48.90
2018-05-23T22:42:25.761Z,48.84
2018-05-23T22:44:51.713Z,49.19
2018-05-23T22:47:17.670Z,48.89
2018-05-23T22:49:43.634Z,49.02
2018-05-23T22:52:09.599Z,48.97
2018-05-23T22:54:35.576Z,48.63
2018-05-23T22:57:01.509Z,48.77
2018-05-23T22:59:27.453Z,49.15
2018-05-23T23:01:53.439Z,48.82
2018-05-23T23:04:19.412Z,49.04
2018-05-23T23:06:45.352Z,49.02
2018-05-23T23:09:11.314Z,48.93
2018-05-23T23:11:37.286Z,49.28
2018-05-23T23:14:03.245Z,49.40
2018-05-23T23:16:29.214Z,48.74
2018-05-23T23:18:55.212Z,49.08
2018-05-23T23:21:21.173Z,48.95
2018-05-23T23:23:47.112Z,49.44
2018-05-23T23:26:13.062Z,49.50
2018-05-23T23:28:38.995Z,49.26
2018-05-23T23:31:04.975Z,49.66
2018-05-23T23:33:30.933Z,49.85
2018-05-23T23:35:56.920Z,49.68
2018-05-23T23:38:22.853Z,49.57
2018-05-23T23:40:48.842Z,49.66
2018-05-23T23:43:14.823Z,49.77
2018-05-23T23:45:40.957Z,49.94
2018-05-23T23:48:06.797Z,50.12
2018-05-23T23:50:32.755Z,49.92
2018-05-23T23:52:58.718Z,49.85
2018-05-23T23:55:24.675Z,50.09
2018-05-23T23:57:50.689Z,50.23
